Time;durP1;ratioP1;P1;durP2;ratioP2;P2;SDS_P1;SDS_P2;PMS_P1;PMS_P2;Temp;Humidity;BMP_temperature;BMP_pressure;BME280_temperature;BME280_humidity;BME280_pressure;Samples;Min_cycle;Max_cycle;Signal;HPM_P1;HPM_P2
2023/11/09 00:00:32;;;;;;;3.42;1.35;;;;;;;9.16;100.00;100075.81;5071784;28;20044;-53
2023/11/09 00:03:00;;;;;;;4.30;1.10;;;;;;;9.18;100.00;100068.69;5057892;28;20052;-55
2023/11/09 00:05:29;;;;;;;1.95;1.25;;;;;;;9.21;100.00;100071.91;5060253;28;20496;-55
2023/11/09 00:07:58;;;;;;;3.60;1.10;;;;;;;9.19;100.00;100062.47;5069432;28;20119;-52
2023/11/09 00:10:26;;;;;;;3.08;1.30;;;;;;;9.16;100.00;100063.53;5069304;28;20105;-54
2023/11/09 00:12:58;;;;;;;2.42;1.20;;;;;;;9.17;100.00;100061.75;5068982;28;20049;-54
2023/11/09 00:15:26;;;;;;;1.70;1.10;;;;;;;9.21;100.00;100055.34;5068190;28;20043;-54
2023/11/09 00:17:56;;;;;;;2.75;1.10;;;;;;;9.21;100.00;100053.53;5067382;28;20052;-56
2023/11/09 00:20:26;;;;;;;2.45;1.20;;;;;;;9.18;100.00;100055.56;5070074;28;20127;-54
2023/11/09 00:22:55;;;;;;;2.53;1.30;;;;;;;9.20;100.00;100045.78;5068709;28;20048;-55
2023/11/09 00:25:23;;;;;;;3.35;1.30;;;;;;;9.18;100.00;100038.03;5070402;28;20403;-54
2023/11/09 00:27:51;;;;;;;2.50;1.30;;;;;;;9.16;100.00;100042.53;5068908;28;20429;-53
2023/11/09 00:30:20;;;;;;;2.97;1.65;;;;;;;9.17;100.00;100031.09;5066968;28;20057;-54
2023/11/09 00:32:48;;;;;;;3.28;1.25;;;;;;;9.17;100.00;100035.53;5068763;28;20044;-53
2023/11/09 00:35:19;;;;;;;1.98;1.17;;;;;;;9.14;100.00;100020.84;5069922;28;20044;-53
2023/11/09 00:37:47;;;;;;;2.88;1.17;;;;;;;9.19;100.00;100023.13;5068007;28;20090;-54
2023/11/09 00:40:17;;;;;;;2.30;1.38;;;;;;;9.16;100.00;100020.72;5058844;28;20076;-54
2023/11/09 00:42:45;;;;;;;2.80;1.08;;;;;;;9.16;100.00;100018.09;5050777;28;20045;-54
2023/11/09 00:45:14;;;;;;;2.45;1.30;;;;;;;9.18;100.00;100006.56;5067604;28;20407;-54
2023/11/09 00:47:42;;;;;;;2.70;1.20;;;;;;;9.15;100.00;100012.03;5067995;28;20048;-53
2023/11/09 00:50:10;;;;;;;1.92;1.25;;;;;;;9.16;100.00;99987.44;5067675;28;20055;-54
2023/11/09 00:52:39;;;;;;;3.45;1.30;;;;;;;9.13;100.00;99991.16;5068505;28;20037;-54
2023/11/09 00:55:08;;;;;;;1.58;1.13;;;;;;;9.13;100.00;99996.41;5066475;28;20052;-54
2023/11/09 00:57:37;;;;;;;2.28;1.38;;;;;;;9.14;100.00;99986.72;5068299;28;20048;-54
2023/11/09 01:00:07;;;;;;;5.32;1.63;;;;;;;9.14;100.00;99984.94;5068647;28;20052;-56
2023/11/09 01:02:38;;;;;;;3.20;1.60;;;;;;;9.16;100.00;99981.38;5067723;28;20094;-54
2023/11/09 01:05:07;;;;;;;2.33;1.30;;;;;;;9.15;100.00;99977.91;5064236;28;20055;-55
2023/11/09 01:07:37;;;;;;;2.50;1.40;;;;;;;9.14;100.00;99966.56;5066915;28;20048;-53
2023/11/09 01:10:10;;;;;;;3.10;1.20;;;;;;;9.16;100.00;99976.13;5052461;28;20040;-54
2023/11/09 01:12:40;;;;;;;3.28;1.20;;;;;;;9.12;100.00;99965.00;5061389;28;20476;-55
2023/11/09 01:15:08;;;;;;;2.42;1.30;;;;;;;9.13;100.00;99967.53;5048969;28;20044;-54
2023/11/09 01:17:38;;;;;;;1.92;1.23;;;;;;;9.13;100.00;99958.81;5053879;28;20507;-54
2023/11/09 01:20:10;;;;;;;2.63;1.50;;;;;;;9.16;100.00;99961.22;5068177;28;20124;-55
2023/11/09 01:22:39;;;;;;;3.88;1.13;;;;;;;9.14;100.00;99961.31;5071284;28;20102;-52
2023/11/09 01:25:08;;;;;;;2.15;1.30;;;;;;;9.17;100.00;99960.28;5070923;28;20098;-52
2023/11/09 01:27:37;;;;;;;2.65;1.30;;;;;;;9.14;100.00;99948.22;5069633;28;20048;-55
2023/11/09 01:30:07;;;;;;;3.28;1.30;;;;;;;9.11;100.00;99950.25;5071987;28;20693;-54
2023/11/09 01:32:36;;;;;;;1.60;1.20;;;;;;;9.11;100.00;99947.63;5074074;28;20078;-54
2023/11/09 01:35:07;;;;;;;2.03;1.30;;;;;;;9.18;100.00;99948.00;5070506;28;20584;-55
2023/11/09 01:37:36;;;;;;;2.97;1.25;;;;;;;9.12;100.00;99939.63;5072812;28;20060;-55
2023/11/09 01:40:06;;;;;;;2.75;1.17;;;;;;;9.16;100.00;99940.22;5068957;28;20086;-52
2023/11/09 01:42:35;;;;;;;2.08;1.30;;;;;;;9.13;100.00;99935.22;5071100;28;20044;-53
2023/11/09 01:45:09;;;;;;;2.72;1.40;;;;;;;9.16;100.00;99932.34;5058582;28;20068;-56
2023/11/09 01:47:37;;;;;;;2.42;1.35;;;;;;;9.16;100.00;99928.91;5070262;28;20040;-53
2023/11/09 01:50:09;;;;;;;2.42;1.42;;;;;;;9.14;100.00;99921.97;5058991;28;20072;-55
2023/11/09 01:52:37;;;;;;;3.03;1.50;;;;;;;9.16;100.00;99918.41;5052500;28;20056;-47
2023/11/09 01:55:07;;;;;;;2.33;1.40;;;;;;;9.11;100.00;99916.16;5056367;28;20056;-49
2023/11/09 01:57:37;;;;;;;2.03;1.20;;;;;;;9.13;100.00;99914.22;5056702;28;20048;-48
2023/11/09 02:00:09;;;;;;;2.70;1.48;;;;;;;9.15;100.00;99920.22;5058943;28;20044;-50
2023/11/09 02:02:38;;;;;;;2.38;1.20;;;;;;;9.16;100.00;99908.75;5061280;28;20041;-48
2023/11/09 02:05:08;;;;;;;2.95;1.20;;;;;;;9.15;100.00;99901.84;5062597;28;20114;-50
2023/11/09 02:07:37;;;;;;;2.67;1.20;;;;;;;9.14;100.00;99900.16;5060972;28;20032;-48
2023/11/09 02:10:07;;;;;;;1.73;1.05;;;;;;;9.13;100.00;99908.97;5056475;28;20132;-49
2023/11/09 02:12:36;;;;;;;2.53;1.20;;;;;;;9.17;100.00;99899.09;5062561;28;20800;-51
2023/11/09 02:15:05;;;;;;;3.20;1.13;;;;;;;9.16;100.00;99893.00;5049295;28;20048;-51
2023/11/09 02:17:36;;;;;;;2.15;1.20;;;;;;;9.17;100.00;99894.69;5063733;28;20064;-49
2023/11/09 02:20:06;;;;;;;2.25;1.05;;;;;;;9.12;100.00;99883.69;5069758;28;20065;-48
2023/11/09 02:22:38;;;;;;;1.75;1.05;;;;;;;9.12;100.00;99883.69;5072821;28;20399;-48
2023/11/09 02:25:07;;;;;;;2.92;1.20;;;;;;;9.15;100.00;99880.88;5068486;28;20052;-47
2023/11/09 02:27:35;;;;;;;1.80;1.17;;;;;;;9.14;100.00;99874.75;5070438;28;20053;-47
2023/11/09 02:30:04;;;;;;;2.97;1.15;;;;;;;9.11;100.00;99874.19;5067145;28;20109;-50
2023/11/09 02:32:33;;;;;;;4.03;1.40;;;;;;;9.10;100.00;99872.50;5065493;28;20040;-48
2023/11/09 02:35:01;;;;;;;2.20;1.30;;;;;;;9.11;100.00;99868.94;5060428;28;20106;-48
2023/11/09 02:37:30;;;;;;;2.55;1.50;;;;;;;9.13;100.00;99862.63;5062346;28;20040;-49
2023/11/09 02:39:58;;;;;;;3.88;1.45;;;;;;;9.12;100.00;99860.09;5051691;28;20051;-50
2023/11/09 02:42:28;;;;;;;2.50;1.60;;;;;;;9.14;100.00;99860.81;5068591;28;20067;-48
2023/11/09 02:44:56;;;;;;;2.65;1.60;;;;;;;9.17;100.00;99857.97;5060940;28;20048;-49
2023/11/09 02:47:24;;;;;;;3.30;1.38;;;;;;;9.11;100.00;99854.00;5057704;28;20072;-47
2023/11/09 02:49:52;;;;;;;4.85;1.77;;;;;;;9.16;100.00;99844.97;5053389;28;20048;-50
2023/11/09 02:52:20;;;;;;;2.60;1.40;;;;;;;9.14;100.00;99850.31;5063947;28;20044;-48
2023/11/09 02:54:48;;;;;;;2.83;1.60;;;;;;;9.14;100.00;99843.28;5061204;28;20053;-48
2023/11/09 02:57:17;;;;;;;3.05;1.58;;;;;;;9.19;100.00;99852.59;5059415;28;20102;-49
2023/11/09 02:59:47;;;;;;;3.72;1.70;;;;;;;9.17;100.00;99857.97;5055416;28;20095;-51
2023/11/09 03:02:18;;;;;;;2.75;1.60;;;;;;;9.19;100.00;99852.59;5050320;28;20424;-49
2023/11/09 03:04:46;;;;;;;3.83;1.80;;;;;;;9.19;100.00;99850.81;5054938;28;20121;-46
2023/11/09 03:07:15;;;;;;;3.63;1.73;;;;;;;9.16;100.00;99840.53;5058307;28;20115;-47
2023/11/09 03:09:44;;;;;;;4.57;1.77;;;;;;;9.17;100.00;99839.59;5059149;28;20533;-51
2023/11/09 03:12:12;;;;;;;3.85;1.85;;;;;;;9.19;100.00;99837.72;5066249;28;20145;-46
2023/11/09 03:14:40;;;;;;;5.95;1.85;;;;;;;9.18;100.00;99838.66;5062961;28;20036;-46
2023/11/09 03:17:11;;;;;;;3.42;1.98;;;;;;;9.20;100.00;99841.16;5052557;28;20044;-47
2023/11/09 03:19:40;;;;;;;3.45;1.52;;;;;;;9.20;100.00;99836.72;5051353;28;20049;-48
2023/11/09 03:22:10;;;;;;;5.20;1.92;;;;;;;9.19;100.00;99836.84;5048362;28;20055;-52
2023/11/09 03:24:41;;;;;;;4.82;1.98;;;;;;;9.22;100.00;99829.59;5064121;28;20053;-49
2023/11/09 03:27:10;;;;;;;3.75;1.85;;;;;;;9.23;100.00;99833.91;5069223;28;20098;-49
2023/11/09 03:29:38;;;;;;;4.10;1.83;;;;;;;9.24;100.00;99827.72;5067869;28;20513;-48
2023/11/09 03:32:09;;;;;;;2.47;1.40;;;;;;;9.25;100.00;99831.97;5051533;28;20041;-50
2023/11/09 03:34:39;;;;;;;2.95;1.70;;;;;;;9.24;100.00;99837.34;5051200;28;20044;-47
2023/11/09 03:37:07;;;;;;;2.78;1.80;;;;;;;9.24;100.00;99826.84;5054077;28;20074;-48
2023/11/09 03:39:35;;;;;;;3.13;1.73;;;;;;;9.25;100.00;99837.22;5054313;28;20052;-47
2023/11/09 03:42:05;;;;;;;3.53;1.70;;;;;;;9.26;100.00;99841.53;5053790;28;20460;-49
2023/11/09 03:44:35;;;;;;;3.13;1.50;;;;;;;9.25;100.00;99836.41;5052670;28;20049;-48
2023/11/09 03:47:04;;;;;;;2.45;1.55;;;;;;;9.26;100.00;99819.72;5049690;28;20048;-47
2023/11/09 03:49:41;;;;;;;2.80;1.80;;;;;;;9.28;100.00;99820.41;5050826;28;20052;-48
2023/11/09 03:52:10;;;;;;;4.32;1.80;;;;;;;9.25;100.00;99816.25;5053121;28;20149;-47
2023/11/09 03:54:38;;;;;;;3.47;1.70;;;;;;;9.34;100.00;99817.34;5052488;28;20064;-49
2023/11/09 03:57:07;;;;;;;2.50;1.75;;;;;;;9.30;100.00;99816.72;5061785;28;20090;-47
2023/11/09 03:59:36;;;;;;;3.00;1.75;;;;;;;9.31;100.00;99820.19;5052505;28;20049;-47
2023/11/09 04:02:04;;;;;;;2.95;1.88;;;;;;;9.34;100.00;99816.50;5047622;28;20432;-50
2023/11/09 04:04:35;;;;;;;3.05;1.77;;;;;;;9.33;100.00;99815.66;5050418;28;20045;-50
2023/11/09 04:07:04;;;;;;;2.60;1.73;;;;;;;9.28;100.00;99821.28;5051074;28;20069;-47
2023/11/09 04:09:32;;;;;;;2.70;1.83;;;;;;;9.33;100.00;99820.09;5053048;28;20139;-48
2023/11/09 04:12:00;;;;;;;5.20;2.30;;;;;;;9.30;100.00;99819.34;5070104;28;20059;-48
2023/11/09 04:14:28;;;;;;;4.47;2.53;;;;;;;9.32;100.00;99814.00;5068019;28;20040;-48
2023/11/09 04:16:56;;;;;;;4.30;2.60;;;;;;;9.32;100.00;99821.03;5068949;28;20484;-53
2023/11/09 04:19:26;;;;;;;2.70;2.15;;;;;;;9.37;100.00;99821.53;5067778;28;20045;-53
2023/11/09 04:21:55;;;;;;;3.90;2.50;;;;;;;9.36;100.00;99819.84;5069716;28;20044;-53
2023/11/09 04:24:24;;;;;;;3.60;2.22;;;;;;;9.41;100.00;99815.91;5061258;28;20222;-54
2023/11/09 04:26:53;;;;;;;4.78;2.78;;;;;;;9.44;100.00;99817.47;5052220;28;20500;-48
2023/11/09 04:29:22;;;;;;;5.10;2.70;;;;;;;9.43;100.00;99819.25;5058667;28;20056;-50
2023/11/09 04:31:50;;;;;;;5.13;2.65;;;;;;;9.44;100.00;99817.47;5054667;28;20068;-48
2023/11/09 04:34:19;;;;;;;4.35;2.63;;;;;;;9.45;100.00;99806.03;5049833;28;20393;-50
2023/11/09 04:36:50;;;;;;;5.68;2.60;;;;;;;9.45;100.00;99800.78;5062648;28;20511;-50
2023/11/09 04:39:27;;;;;;;5.10;2.80;;;;;;;9.51;100.00;99813.41;5046000;28;20048;-47
2023/11/09 04:41:58;;;;;;;5.13;2.78;;;;;;;9.50;100.00;99811.72;5053806;28;20534;-47
2023/11/09 04:44:28;;;;;;;4.75;2.90;;;;;;;9.48;100.00;99808.41;5062671;28;20098;-47
2023/11/09 04:46:57;;;;;;;5.35;2.90;;;;;;;9.49;100.00;99804.84;5056215;28;20372;-51
2023/11/09 04:49:26;;;;;;;6.55;3.42;;;;;;;9.50;100.00;99810.91;5050688;28;20075;-52
2023/11/09 04:51:55;;;;;;;6.00;3.30;;;;;;;9.48;100.00;99813.66;5065111;28;20106;-49
2023/11/09 04:54:24;;;;;;;6.03;3.40;;;;;;;9.51;100.00;99808.16;5058357;28;20048;-51
2023/11/09 04:58:44;;;;;;;4.82;3.30;;;;;;;9.54;100.00;99807.09;5057614;28;20040;-46
2023/11/09 05:08:10;;;;;;;7.80;4.35;;;;;;;9.53;100.00;99811.53;5061934;28;20498;-49
2023/11/09 05:10:38;;;;;;;7.30;3.90;;;;;;;9.55;100.00;99808.78;5065093;28;20071;-50
2023/11/09 05:13:06;;;;;;;7.20;3.97;;;;;;;9.59;100.00;99808.41;5056511;28;20029;-49
2023/11/09 05:15:38;;;;;;;7.15;4.25;;;;;;;9.60;100.00;99812.72;5058826;28;20049;-48
2023/11/09 05:18:06;;;;;;;6.60;3.97;;;;;;;9.62;100.00;99809.97;5051280;28;20052;-46
2023/11/09 05:20:34;;;;;;;5.82;3.83;;;;;;;9.59;100.00;99800.53;5052838;28;20098;-47
2023/11/09 05:23:02;;;;;;;6.45;4.07;;;;;;;9.61;100.00;99811.75;5060796;28;20045;-51
2023/11/09 05:25:31;;;;;;;7.28;4.50;;;;;;;9.65;100.00;99814.97;5053837;28;20036;-50
2023/11/09 05:27:59;;;;;;;7.45;4.60;;;;;;;9.64;100.00;99814.16;5057559;28;20416;-50
2023/11/09 05:30:27;;;;;;;7.97;4.68;;;;;;;9.63;100.00;99812.47;5057106;28;20220;-50
2023/11/09 05:32:56;;;;;;;7.53;4.20;;;;;;;9.66;100.00;99813.19;5054287;28;20056;-54
2023/11/09 05:35:25;;;;;;;6.75;4.63;;;;;;;9.67;100.00;99817.47;5060535;28;20063;-50
2023/11/09 05:37:55;;;;;;;6.90;4.72;;;;;;;9.68;100.00;99822.63;5064146;28;20048;-50
2023/11/09 05:40:24;;;;;;;7.13;4.30;;;;;;;9.69;100.00;99826.06;5050382;28;20060;-47
2023/11/09 05:42:52;;;;;;;9.13;5.20;;;;;;;9.67;100.00;99825.34;5065735;28;20044;-54
2023/11/09 05:45:20;;;;;;;9.25;5.20;;;;;;;9.67;100.00;99833.22;5066565;28;20060;-53
2023/11/09 05:47:51;;;;;;;8.40;5.47;;;;;;;9.71;100.00;99829.44;5066442;28;20787;-55
2023/11/09 05:50:20;;;;;;;9.73;5.70;;;;;;;9.67;100.00;99826.19;5069715;28;20047;-55
2023/11/09 05:52:49;;;;;;;7.40;5.20;;;;;;;9.71;100.00;99832.06;5064455;28;20052;-53
2023/11/09 05:55:19;;;;;;;9.80;5.60;;;;;;;9.70;100.00;99836.47;5063226;28;20053;-55
2023/11/09 05:57:47;;;;;;;8.50;5.65;;;;;;;9.67;100.00;99835.84;5079091;28;20122;-48
2023/11/09 06:00:17;;;;;;;8.55;6.00;;;;;;;9.70;100.00;99838.25;5057748;28;20081;-54
2023/11/09 06:02:45;;;;;;;7.70;4.60;;;;;;;9.69;100.00;99841.81;5065649;28;20057;-54
2023/11/09 06:05:13;;;;;;;7.53;4.55;;;;;;;9.63;100.00;99840.53;5059363;28;20501;-54
2023/11/09 06:07:42;;;;;;;8.07;4.05;;;;;;;9.62;100.00;99836.22;5055202;28;20087;-54
2023/11/09 06:10:13;;;;;;;7.78;4.22;;;;;;;9.64;100.00;99843.03;5069161;28;20040;-53
2023/11/09 06:12:44;;;;;;;7.22;4.18;;;;;;;9.60;100.00;99848.63;5071507;28;20040;-55
2023/11/09 06:15:13;;;;;;;8.02;4.30;;;;;;;9.60;100.00;99854.72;5069674;28;20376;-54
2023/11/09 06:17:41;;;;;;;6.32;3.72;;;;;;;9.61;100.00;99852.91;5073466;28;20056;-53
2023/11/09 06:20:13;;;;;;;7.85;4.05;;;;;;;9.57;100.00;99870.72;5073743;28;20436;-53
2023/11/09 06:22:43;;;;;;;6.20;3.50;;;;;;;9.52;100.00;99867.59;5073612;28;20412;-53
2023/11/09 06:25:12;;;;;;;7.75;3.22;;;;;;;9.54;100.00;99870.09;5071079;28;20129;-54
2023/11/09 06:27:41;;;;;;;6.13;3.45;;;;;;;9.54;100.00;99881.41;5069920;28;20048;-53
2023/11/09 06:30:11;;;;;;;6.45;3.25;;;;;;;9.49;100.00;99880.94;5051871;28;20041;-54
2023/11/09 06:32:40;;;;;;;7.05;3.25;;;;;;;9.44;100.00;99883.91;5049641;28;20103;-55
2023/11/09 06:35:13;;;;;;;6.90;3.47;;;;;;;9.42;100.00;99888.44;5048849;28;20033;-55
2023/11/09 06:37:45;;;;;;;7.45;3.25;;;;;;;9.43;100.00;99889.28;5049931;28;20036;-48
2023/11/09 06:40:16;;;;;;;8.48;3.20;;;;;;;9.43;100.00;99894.53;5046684;28;20124;-46
2023/11/09 06:42:45;;;;;;;8.05;3.42;;;;;;;9.41;100.00;99899.91;5050501;28;20780;-50
2023/11/09 06:45:13;;;;;;;7.72;3.38;;;;;;;9.37;100.00;99895.00;5056713;28;20041;-47
2023/11/09 06:47:42;;;;;;;8.48;3.50;;;;;;;9.34;100.00;99901.31;5063506;28;20537;-47
2023/11/09 06:50:12;;;;;;;8.27;3.53;;;;;;;9.34;100.00;99910.94;5054782;28;20055;-47
2023/11/09 06:52:43;;;;;;;7.95;3.53;;;;;;;9.33;100.00;99923.25;5064261;28;20044;-47
2023/11/09 06:55:11;;;;;;;9.07;3.72;;;;;;;9.29;100.00;99930.50;5052437;28;20496;-47
2023/11/09 06:57:40;;;;;;;7.75;3.78;;;;;;;9.28;100.00;99933.25;5062271;28;20045;-47
2023/11/09 07:00:11;;;;;;;8.13;3.70;;;;;;;9.24;100.00;99932.66;5069781;28;20063;-50
2023/11/09 07:02:39;;;;;;;8.93;4.15;;;;;;;9.20;100.00;99931.19;5071488;28;20052;-54
2023/11/09 07:05:09;;;;;;;8.18;4.03;;;;;;;9.19;100.00;99934.78;5068046;28;20119;-54
2023/11/09 07:07:38;;;;;;;8.57;4.18;;;;;;;9.16;100.00;99942.84;5072658;28;20048;-54
2023/11/09 07:10:08;;;;;;;8.68;4.07;;;;;;;9.14;100.00;99942.97;5072923;28;20124;-53
2023/11/09 07:12:37;;;;;;;9.15;4.53;;;;;;;9.17;100.00;99944.53;5071735;28;20566;-53
2023/11/09 07:15:07;;;;;;;9.32;4.13;;;;;;;9.14;100.00;99952.63;5069867;28;20044;-54
2023/11/09 07:17:36;;;;;;;8.40;3.78;;;;;;;9.13;100.00;99945.72;5070210;28;20147;-54
2023/11/09 07:20:05;;;;;;;8.93;4.22;;;;;;;9.13;100.00;99949.19;5069919;28;20488;-53
2023/11/09 07:22:34;;;;;;;7.68;3.75;;;;;;;9.15;100.00;99954.31;5049981;28;20052;-53
2023/11/09 07:25:02;;;;;;;10.32;3.85;;;;;;;9.16;100.00;99955.13;5055879;28;20049;-54
2023/11/09 07:27:41;;;;;;;12.18;4.07;;;;;;;9.17;100.00;99962.91;5071743;28;20449;-54
2023/11/09 07:30:11;;;;;;;9.57;3.88;;;;;;;9.19;100.00;99955.75;5072690;28;20090;-55
2023/11/09 07:32:41;;;;;;;8.82;4.70;;;;;;;9.17;100.00;99956.81;5068887;28;20452;-55
2023/11/09 07:35:09;;;;;;;8.45;4.32;;;;;;;9.16;100.00;99961.22;5068377;28;20044;-54
2023/11/09 07:37:37;;;;;;;8.20;4.00;;;;;;;9.18;100.00;99958.50;5069750;28;20036;-54
2023/11/09 07:40:09;;;;;;;11.10;4.40;;;;;;;9.16;100.00;99965.63;5070292;28;20056;-53
2023/11/09 07:42:38;;;;;;;7.82;3.95;;;;;;;9.11;100.00;99971.22;5069416;28;20454;-51
2023/11/09 07:45:10;;;;;;;10.95;4.43;;;;;;;9.12;100.00;99975.50;5071219;28;20080;-53
2023/11/09 07:47:38;;;;;;;9.50;3.90;;;;;;;9.17;100.00;99967.31;5072556;28;20040;-53
2023/11/09 07:50:09;;;;;;;12.18;4.47;;;;;;;9.17;100.00;99960.28;5072357;28;20050;-55
2023/11/09 07:52:38;;;;;;;8.65;3.63;;;;;;;9.14;100.00;99973.63;5056015;28;20045;-52
2023/11/09 07:55:07;;;;;;;9.82;3.97;;;;;;;9.15;100.00;99975.31;5060293;28;20044;-53
2023/11/09 07:57:35;;;;;;;8.80;3.95;;;;;;;9.16;100.00;99970.88;5055895;28;20110;-54
2023/11/09 08:00:06;;;;;;;9.88;3.80;;;;;;;9.15;100.00;99970.06;5053209;28;20040;-53
2023/11/09 08:02:35;;;;;;;12.45;4.13;;;;;;;9.14;100.00;99963.13;5065972;28;20518;-55
2023/11/09 08:05:05;;;;;;;11.18;4.50;;;;;;;9.18;100.00;99963.75;5054705;28;20092;-55
2023/11/09 08:07:34;;;;;;;9.38;4.40;;;;;;;9.20;100.00;99957.41;5069035;28;20101;-52
2023/11/09 08:10:06;;;;;;;9.63;4.60;;;;;;;9.18;100.00;99959.31;5067018;28;20033;-55
2023/11/09 08:12:36;;;;;;;10.32;5.03;;;;;;;9.20;100.00;99953.97;5048987;28;20063;-54
2023/11/09 08:15:10;;;;;;;9.30;4.55;;;;;;;9.22;100.00;99952.09;5051075;28;20043;-54
2023/11/09 08:17:41;;;;;;;7.93;4.80;;;;;;;9.23;100.00;99951.09;5060058;28;20105;-54
2023/11/09 08:20:13;;;;;;;16.70;5.30;;;;;;;9.27;100.00;99952.56;5055906;28;20069;-56
2023/11/09 08:22:44;;;;;;;11.90;5.00;;;;;;;9.31;100.00;99954.00;5049610;28;20057;-54
2023/11/09 08:25:14;;;;;;;11.43;5.13;;;;;;;9.35;100.00;99954.63;5046783;28;20053;-53
2023/11/09 08:27:42;;;;;;;11.02;5.85;;;;;;;9.35;100.00;99963.31;5049749;28;20053;-53
2023/11/09 08:30:15;;;;;;;11.77;6.40;;;;;;;9.35;100.00;99957.25;5051691;28;20115;-53
2023/11/09 08:32:47;;;;;;;13.98;7.03;;;;;;;9.38;100.00;99959.63;5051861;28;20120;-50
2023/11/09 08:35:17;;;;;;;12.15;6.82;;;;;;;9.38;100.00;99954.38;5051935;28;20080;-52
2023/11/09 08:37:46;;;;;;;14.45;6.97;;;;;;;9.42;100.00;99961.06;5053302;28;20465;-55
2023/11/09 08:40:17;;;;;;;15.55;8.00;;;;;;;9.41;100.00;99967.31;5054318;28;20057;-52
2023/11/09 08:42:47;;;;;;;15.18;7.65;;;;;;;9.42;100.00;99972.44;5053027;28;20049;-53
2023/11/09 08:45:21;;;;;;;14.05;7.20;;;;;;;9.41;100.00;99970.75;5052292;28;20516;-55
2023/11/09 08:47:51;;;;;;;13.63;7.72;;;;;;;9.43;100.00;99965.38;5055560;28;20049;-53
2023/11/09 08:50:21;;;;;;;12.98;7.50;;;;;;;9.45;100.00;99968.75;5052541;28;20044;-53
2023/11/09 08:52:49;;;;;;;14.13;8.65;;;;;;;9.43;100.00;99973.25;5053198;28;20044;-55
2023/11/09 08:55:18;;;;;;;14.63;8.65;;;;;;;9.41;100.00;99985.66;5050947;28;20417;-54
2023/11/09 08:57:47;;;;;;;15.65;9.23;;;;;;;9.38;100.00;99981.47;5053334;28;20472;-53
2023/11/09 09:00:16;;;;;;;14.55;9.32;;;;;;;9.40;100.00;99986.63;5052010;28;20049;-55
2023/11/09 09:02:48;;;;;;;17.13;9.82;;;;;;;9.39;100.00;99993.63;5055759;28;20049;-54
2023/11/09 09:05:20;;;;;;;17.58;9.50;;;;;;;9.39;100.00;99995.44;5055213;28;20049;-54
2023/11/09 09:07:51;;;;;;;15.38;9.73;;;;;;;9.42;100.00;100000.44;5055050;28;20049;-53
2023/11/09 09:10:26;;;;;;;17.15;9.60;;;;;;;9.44;100.00;99993.31;5055068;28;20377;-54
2023/11/09 09:12:56;;;;;;;15.93;9.70;;;;;;;9.45;100.00;99992.38;5054912;28;20041;-48
2023/11/09 09:15:28;;;;;;;18.67;11.40;;;;;;;9.48;100.00;99989.50;5051424;28;20051;-50
2023/11/09 09:17:58;;;;;;;18.45;10.88;;;;;;;9.46;100.00;99997.50;5051972;28;20136;-47
2023/11/09 09:20:28;;;;;;;22.25;10.88;;;;;;;9.46;100.00;99999.28;5052634;28;20060;-46
2023/11/09 09:22:59;;;;;;;19.38;11.48;;;;;;;9.49;100.00;99996.44;5055090;28;20052;-50
2023/11/09 09:25:29;;;;;;;19.13;10.75;;;;;;;9.52;100.00;99990.13;5050718;28;20048;-51
2023/11/09 09:28:01;;;;;;;19.95;10.13;;;;;;;9.55;100.00;99988.09;5050338;28;20495;-47
2023/11/09 09:30:32;;;;;;;20.35;10.90;;;;;;;9.62;100.00;99991.94;5051873;28;20400;-50
2023/11/09 09:33:01;;;;;;;21.40;10.95;;;;;;;9.62;100.00;99994.56;5051632;28;20060;-48
2023/11/09 09:35:32;;;;;;;21.60;11.00;;;;;;;9.61;100.00;99987.66;5053282;28;20048;-46
2023/11/09 09:38:15;;;;;;;;;;;;;;;9.70;100.00;99987.91;5055261;28;20048;-47
2023/11/09 09:40:47;;;;;;;20.00;10.30;;;;;;;9.69;100.00;99988.84;5054433;28;19927;-50
2023/11/09 09:43:19;;;;;;;22.55;11.80;;;;;;;9.75;100.00;99991.84;5052437;28;20526;-47
2023/11/09 09:45:57;;;;;;;18.98;11.57;;;;;;;9.75;100.00;99988.41;5051320;28;20074;-48
2023/11/09 09:48:28;;;;;;;24.80;12.88;;;;;;;9.74;100.00;99986.72;5057560;28;20496;-55
2023/11/09 09:51:00;;;;;;;20.48;12.13;;;;;;;9.79;100.00;99989.84;5065750;28;20527;-53
2023/11/09 09:53:30;;;;;;;23.37;13.83;;;;;;;9.84;100.00;99987.69;5061078;28;20527;-53
2023/11/09 09:55:59;;;;;;;20.25;13.07;;;;;;;9.88;100.00;99989.13;5058093;28;20052;-54
2023/11/09 09:58:28;;;;;;;22.63;12.73;;;;;;;9.95;100.00;99990.38;5049963;28;20063;-53
2023/11/09 10:01:00;;;;;;;24.17;13.48;;;;;;;10.04;100.00;99991.44;5061409;28;20061;-56
2023/11/09 10:03:33;;;;;;;27.20;14.00;;;;;;;10.16;100.00;99997.56;5062063;28;20053;-54
2023/11/09 10:06:06;;;;;;;25.75;14.13;;;;;;;10.35;100.00;99999.63;5053815;28;20076;-53
2023/11/09 10:08:35;;;;;;;25.25;13.05;;;;;;;10.40;100.00;99999.25;5066432;28;20060;-53
2023/11/09 10:11:04;;;;;;;23.90;12.85;;;;;;;10.43;100.00;99993.75;5068821;28;20056;-56
2023/11/09 10:13:35;;;;;;;27.63;13.43;;;;;;;10.53;100.00;99997.34;5073872;28;20440;-55
2023/11/09 10:16:03;;;;;;;22.17;13.27;;;;;;;10.51;100.00;100006.31;5071580;28;20041;-55
2023/11/09 10:18:33;;;;;;;21.52;13.40;;;;;;;10.58;100.00;100007.50;5071194;28;20444;-55
2023/11/09 10:21:04;;;;;;;20.08;12.68;;;;;;;10.67;100.00;100011.22;5071814;28;20106;-55
2023/11/09 10:23:32;;;;;;;20.85;12.63;;;;;;;10.73;100.00;100013.34;5070520;28;20124;-50
2023/11/09 10:26:01;;;;;;;22.48;11.30;;;;;;;10.85;100.00;100012.38;5066680;28;20041;-50
2023/11/09 10:28:32;;;;;;;23.10;11.80;;;;;;;10.96;100.00;100007.09;5054304;28;20055;-46
2023/11/09 10:31:01;;;;;;;21.55;11.90;;;;;;;11.11;100.00;99991.88;5056661;28;20091;-49
2023/11/09 10:33:30;;;;;;;25.83;12.50;;;;;;;11.33;100.00;99998.03;5058709;28;20522;-45
2023/11/09 10:36:01;;;;;;;24.73;12.45;;;;;;;11.67;100.00;100005.78;5052173;28;20048;-49
2023/11/09 10:38:32;;;;;;;23.95;11.32;;;;;;;11.80;100.00;100003.78;5055513;28;20399;-47
2023/11/09 10:41:04;;;;;;;27.23;11.32;;;;;;;11.98;100.00;100008.50;5058091;28;20469;-45
2023/11/09 10:43:55;;;;;;;22.90;10.70;;;;;;;11.98;100.00;100012.00;5050127;28;20411;-49
2023/11/09 10:46:24;;;;;;;16.40;11.15;;;;;;;12.09;100.00;100005.81;5052229;28;20037;-48
2023/11/09 10:48:57;;;;;;;23.83;9.73;;;;;;;12.22;100.00;99994.22;5060344;28;20491;-47
2023/11/09 10:51:28;;;;;;;19.40;9.23;;;;;;;12.16;100.00;100001.69;5059159;28;20045;-47
2023/11/09 10:54:01;;;;;;;23.52;9.15;;;;;;;12.24;100.00;100000.19;5056886;28;20052;-47
2023/11/09 10:56:32;;;;;;;20.75;8.77;;;;;;;12.38;100.00;100001.63;5065757;28;20494;-48
2023/11/09 10:59:00;;;;;;;19.90;8.43;;;;;;;12.29;100.00;100001.47;5054815;28;20052;-49
2023/11/09 11:01:30;;;;;;;17.27;8.50;;;;;;;12.38;100.00;99988.44;5062216;28;20060;-47
2023/11/09 11:03:59;;;;;;;15.02;6.93;;;;;;;12.50;100.00;99984.75;5064422;28;20060;-48
2023/11/09 11:06:34;;;;;;;13.52;7.30;;;;;;;12.49;100.00;99991.84;5056877;28;20040;-49
2023/11/09 11:09:18;;;;;;;18.95;7.25;;;;;;;12.57;100.00;99988.53;5059902;28;20055;-48
2023/11/09 11:11:49;;;;;;;16.00;7.10;;;;;;;12.50;100.00;99982.13;5055253;28;20095;-49
2023/11/09 11:14:23;;;;;;;15.38;6.20;;;;;;;12.48;100.00;99984.06;5061695;28;20056;-47
2023/11/09 11:17:25;;;;;;;17.48;6.32;;;;;;;12.55;100.00;99984.38;5064545;28;20048;-45
2023/11/09 11:20:12;;;;;;;14.05;4.82;;;;;;;12.62;100.00;99980.22;5065368;28;20107;-47
2023/11/09 11:23:02;;;;;;;15.23;4.38;;;;;;;12.56;100.00;99976.31;5063100;28;20077;-46
2023/11/09 11:25:36;;;;;;;14.13;4.45;;;;;;;12.60;100.00;99987.44;5050056;28;20055;-46
2023/11/09 11:28:06;;;;;;;15.10;4.70;;;;;;;12.56;100.00;99981.59;5052166;28;20048;-49
2023/11/09 11:30:36;;;;;;;15.60;3.90;;;;;;;12.65;100.00;99983.44;5055626;28;20049;-47
2023/11/09 11:33:08;;;;;;;13.15;3.58;;;;;;;12.69;100.00;99976.06;5049878;28;20404;-48
2023/11/09 11:35:42;;;;;;;12.52;3.28;;;;;;;12.74;100.00;99973.88;5057770;28;20106;-48
2023/11/09 11:38:26;;;;;;;13.15;3.15;;;;;;;12.67;100.00;99975.38;5068362;28;20095;-49
2023/11/09 11:41:17;;;;;;;12.40;3.60;;;;;;;12.79;100.00;99971.66;5053116;28;20143;-47
2023/11/09 11:43:50;;;;;;;11.75;3.13;;;;;;;12.87;100.00;99968.34;5061704;28;20440;-48
2023/11/09 11:46:24;;;;;;;12.13;3.65;;;;;;;12.83;100.00;99964.31;5053735;28;20126;-49
2023/11/09 11:48:54;;;;;;;11.10;3.00;;;;;;;12.71;100.00;99957.47;5050272;28;20558;-47